.
WxDataArchive / Data Records for 2011-04-30
2011-04-29 April 2011 2011-05-01

Data Records for Saturday, 30 April 2011

Time	Temp	Chill	HIndex	Humid	Dewpt	 Wind 	HiWind	WindDir	Rain 	Barom 
-----	----	-----	------	-----	-----	------	------	-------	-----	----- 
00:00	43.2	43.2	43.2	76	36.2	0	0	---	0.00	30.067 
00:05	43.3	43.3	43.3	76	36.3	0	0	---	0.00	30.067 
00:10	43.3	43.3	43.3	75	35.9	0	0	---	0.00	30.067 
00:15	43.2	43.2	43.2	76	36.2	0	0	---	0.00	30.069 
00:20	43.1	43.1	43.1	75	35.7	0	0	---	0.00	30.069 
00:25	42.9	42.9	42.9	76	35.9	0	0	---	0.00	30.069 
00:30	42.8	42.8	42.8	76	35.8	0	0	---	0.00	30.065 
00:35	42.6	42.6	42.6	75	35.2	0	0	---	0.00	30.065 
00:40	42.3	42.3	42.3	75	35.0	0	0	---	0.00	30.065 
00:45	42.2	42.2	42.2	76	35.2	0	0	---	0.00	30.064 
00:50	41.9	41.9	41.9	77	35.2	0	0	---	0.00	30.064 
00:55	41.6	41.6	41.6	77	34.9	0	0	---	0.00	30.064 
01:00	41.5	41.5	41.5	78	35.2	0	0	---	0.00	30.066 
01:05	41.2	41.2	41.2	79	35.2	0	0	---	0.00	30.066 
01:10	41.1	41.1	41.1	80	35.4	0	0	---	0.00	30.066 
01:15	40.9	40.9	40.9	81	35.5	0	0	---	0.00	30.070 
01:20	40.8	40.8	40.8	81	35.4	0	0	---	0.00	30.070 
01:25	40.6	40.6	40.6	82	35.5	0	0	---	0.00	30.070 
01:30	40.5	40.5	40.5	82	35.4	0	0	---	0.00	30.070 
01:35	40.3	40.3	40.3	82	35.2	0	0	---	0.00	30.070 
01:40	40.2	40.2	40.2	82	35.2	0	0	---	0.00	30.070 
01:45	40.1	40.1	40.1	82	35.1	0	0	---	0.00	30.071 
01:50	40.1	40.1	40.1	83	35.4	0	0	---	0.00	30.071 
01:55	39.9	39.9	39.9	83	35.2	0	0	---	0.00	30.071 
02:00	39.9	39.9	39.9	83	35.2	0	0	---	0.00	30.074 
02:05	39.8	39.8	39.8	84	35.4	0	0	---	0.00	30.074 
02:10	39.8	39.8	39.8	83	35.1	0	0	---	0.00	30.074 
02:15	39.6	39.6	39.6	83	34.9	0	0	---	0.00	30.072 
02:20	39.6	39.6	39.6	84	35.2	0	0	---	0.00	30.072 
02:25	39.6	39.6	39.6	84	35.2	0	0	---	0.00	30.072 
02:30	39.8	39.8	39.8	84	35.4	0	0	---	0.00	30.069 
02:35	39.9	39.9	39.9	84	35.5	0	0	---	0.00	30.069 
02:40	39.9	39.9	39.9	84	35.5	0	0	---	0.00	30.069 
02:45	40.1	40.1	40.1	85	36.0	0	0	---	0.00	30.070 
02:50	40.2	40.2	40.2	85	36.1	0	0	---	0.00	30.070 
02:55	40.2	40.2	40.2	85	36.1	0	0	---	0.00	30.070 
03:00	40.3	40.3	40.3	85	36.2	0	0	---	0.00	30.071 
03:05	40.3	40.3	40.3	85	36.2	0	0	---	0.00	30.071 
03:10	40.3	40.3	40.3	84	35.9	0	0	---	0.00	30.071 
03:15	40.5	40.5	40.5	84	36.1	0	0	---	0.00	30.075 
03:20	40.5	40.5	40.5	84	36.1	0	0	---	0.00	30.075 
03:25	40.3	40.3	40.3	84	35.9	0	0	---	0.00	30.075 
03:30	40.3	40.3	40.3	84	35.9	0	0	---	0.00	30.070 
03:35	40.2	40.2	40.2	84	35.8	0	0	---	0.00	30.070 
03:40	40.2	40.2	40.2	84	35.8	0	0	---	0.00	30.070 
03:45	40.2	40.2	40.2	84	35.8	0	0	---	0.00	30.072 
03:50	40.2	40.2	40.2	85	36.1	0	0	---	0.00	30.072 
03:55	40.3	40.3	40.3	85	36.2	0	0	---	0.00	30.072 
04:00	40.5	40.5	40.5	86	36.6	0	0	---	0.00	30.075 
04:05	40.5	40.5	40.5	86	36.6	0	0	---	0.00	30.075 
04:10	40.6	40.6	40.6	86	36.7	0	0	---	0.00	30.075 
04:15	40.6	40.6	40.6	86	36.7	0	0	---	0.00	30.079 
04:20	40.6	40.6	40.6	86	36.7	0	0	---	0.00	30.079 
04:25	40.6	40.6	40.6	85	36.4	0	0	---	0.00	30.079 
04:30	40.9	40.9	40.9	83	36.1	0	0	---	0.00	30.079 
04:35	41.1	41.1	41.1	83	36.3	0	0	---	0.00	30.079 
04:40	41.3	41.3	41.3	81	35.9	0	0	---	0.00	30.079 
04:45	41.8	41.8	41.8	79	35.8	0	0	---	0.00	30.079 
04:50	42.3	42.3	42.3	78	35.9	0	0	---	0.00	30.079 
04:55	42.8	42.8	42.8	75	35.4	0	0	---	0.00	30.079 
05:00	43.3	43.3	43.3	73	35.2	0	0	---	0.00	30.077 
05:05	43.8	43.8	43.8	71	35.0	0	0	---	0.00	30.077 
05:10	44.1	44.1	44.1	70	35.0	0	0	---	0.00	30.077 
05:15	44.3	44.3	44.3	70	35.1	0	0	---	0.00	30.077 
05:20	44.5	44.5	44.5	69	35.0	0	0	---	0.00	30.077 
05:25	44.6	44.6	44.6	69	35.1	0	0	---	0.00	30.077 
05:30	44.8	44.8	44.8	69	35.3	0	0	---	0.00	30.073 
05:35	44.8	44.8	44.8	70	35.6	0	0	---	0.00	30.073 
05:40	44.8	44.8	44.8	69	35.3	0	0	---	0.00	30.073 
05:45	44.8	44.8	44.8	70	35.6	0	0	---	0.00	30.075 
05:50	44.6	44.6	44.6	71	35.8	0	0	---	0.00	30.075 
05:55	44.5	44.5	44.5	71	35.7	0	0	---	0.00	30.075 
06:00	44.3	44.3	44.3	72	35.9	0	0	---	0.00	30.079 
06:05	44.2	44.2	44.2	72	35.8	0	0	---	0.00	30.079 
06:10	44.1	44.1	44.1	72	35.7	0	0	---	0.00	30.079 
06:15	43.8	43.8	43.8	73	35.7	0	0	---	0.00	30.084 
06:20	43.5	43.5	43.5	74	35.8	0	0	---	0.00	30.084 
06:25	43.3	43.3	43.3	74	35.6	0	0	---	0.00	30.084 
06:30	43.2	43.2	43.2	75	35.8	0	0	---	0.00	30.087 
06:35	43.1	43.1	43.1	75	35.7	0	1	315	0.00	30.087 
06:40	43.3	43.3	43.3	74	35.6	1	3	338	0.00	30.087 
06:45	43.8	43.8	43.8	73	35.7	1	3	45	0.00	30.083 
06:50	43.9	43.9	43.9	73	35.8	0	2	45	0.00	30.083 
06:55	44.1	44.1	44.1	73	36.0	0	2	45	0.00	30.083 
07:00	44.2	44.2	44.2	74	36.4	1	2	45	0.00	30.081 
07:05	44.2	44.2	44.2	75	36.8	1	3	45	0.00	30.081 
07:10	44.3	44.3	44.3	75	36.9	0	2	68	0.00	30.081 
07:15	44.3	44.3	44.3	76	37.2	0	2	68	0.00	30.081 
07:20	44.3	44.3	44.3	77	37.6	0	2	68	0.00	30.081 
07:25	44.5	44.5	44.5	78	38.1	0	2	68	0.00	30.081 
07:30	44.6	44.6	44.6	79	38.5	0	2	68	0.00	30.083 
07:35	44.9	44.9	44.9	79	38.8	0	2	68	0.00	30.083 
07:40	45.1	45.1	45.1	80	39.3	0	2	68	0.00	30.083 
07:45	45.2	45.2	45.2	80	39.4	1	2	68	0.00	30.084 
07:50	45.4	45.4	45.4	80	39.6	1	2	68	0.00	30.084 
07:55	45.7	45.7	45.7	79	39.6	2	5	68	0.00	30.084 
08:00	45.8	45.8	45.8	78	39.3	1	3	68	0.00	30.095 
08:05	46.0	46.0	46.0	78	39.5	1	4	90	0.00	30.095 
08:10	46.1	46.1	46.1	78	39.6	1	3	90	0.00	30.095 
08:15	46.1	46.1	46.1	78	39.6	2	4	90	0.00	30.103 
08:20	46.2	46.2	46.2	78	39.7	2	4	90	0.00	30.103 
08:25	46.4	46.4	46.4	78	39.9	2	4	90	0.00	30.103 
08:30	46.4	46.4	46.4	79	40.2	2	5	90	0.00	30.103 
08:35	46.7	46.7	46.7	78	40.2	2	4	90	0.00	30.103 
08:40	46.8	46.8	46.8	78	40.3	1	3	90	0.00	30.103 
08:45	47.0	47.0	47.0	78	40.5	2	3	90	0.00	30.104 
08:50	47.3	47.3	47.3	79	41.1	1	4	90	0.00	30.104 
08:55	48.0	48.0	48.0	77	41.1	3	4	90	0.00	30.104 
09:00	48.8	48.8	48.8	75	41.2	3	6	90	0.00	30.101 
09:05	49.4	49.4	49.4	74	41.5	3	5	90	0.00	30.101 
09:10	50.2	50.2	50.2	72	41.5	3	6	90	0.00	30.101 
09:15	50.7	50.7	50.7	71	41.6	2	4	112	0.00	30.111 
09:20	51.1	51.1	51.1	71	42.0	3	10	90	0.00	30.111 
09:25	51.7	51.7	51.7	70	42.2	3	7	45	0.00	30.111 
09:30	52.3	52.3	52.3	69	42.4	2	6	112	0.00	30.113 
09:35	52.5	52.5	52.5	67	41.9	3	7	112	0.00	30.113 
09:40	52.9	52.9	52.9	67	42.2	2	4	112	0.00	30.113 
09:45	53.1	53.1	53.1	67	42.4	2	5	90	0.00	30.125 
09:50	53.6	53.6	53.6	65	42.1	2	5	90	0.00	30.125 
09:55	54.4	54.4	54.4	63	42.1	3	7	112	0.00	30.125 
10:00	55.1	55.1	55.1	61	41.9	3	7	90	0.00	30.114 
10:05	55.1	55.1	55.1	62	42.3	3	8	90	0.00	30.114 
10:10	55.1	55.1	55.1	62	42.3	2	5	112	0.00	30.114 
10:15	55.1	55.1	55.1	59	41.0	4	10	112	0.00	30.112 
10:20	55.3	55.3	55.3	60	41.7	3	7	112	0.00	30.112 
10:25	55.6	55.6	55.6	60	41.9	3	6	112	0.00	30.112 
10:30	56.0	56.0	56.0	59	41.9	3	8	90	0.00	30.107 
10:35	56.3	56.3	56.3	57	41.3	3	10	112	0.00	30.107 
10:40	56.5	56.5	56.5	58	41.9	2	9	112	0.00	30.107 
10:45	56.7	56.7	56.7	55	40.7	3	8	112	0.00	30.116 
10:50	56.7	56.7	56.7	53	39.8	4	11	90	0.00	30.116 
10:55	57.0	57.0	57.0	54	40.5	3	9	90	0.00	30.116 
11:00	57.5	57.5	57.5	54	41.0	2	10	112	0.00	30.114 
11:05	57.5	57.5	57.5	48	38.0	3	7	90	0.00	30.114 
11:10	57.6	57.6	57.6	49	38.6	3	9	90	0.00	30.114 
11:15	57.5	57.5	57.5	50	39.0	3	10	90	0.00	30.103 
11:20	57.5	57.5	57.5	50	39.0	3	11	90	0.00	30.103 
11:25	57.5	57.5	57.5	51	39.5	4	9	112	0.00	30.103 
11:30	57.6	57.6	57.6	50	39.1	3	11	90	0.00	30.098 
11:35	57.8	57.8	57.8	50	39.3	3	6	90	0.00	30.098 
11:40	57.8	57.8	57.8	47	37.7	4	13	90	0.00	30.098 
11:45	57.6	57.6	57.6	48	38.1	4	12	68	0.00	30.100 
11:50	57.5	57.5	57.5	50	39.0	4	12	90	0.00	30.100 
11:55	57.5	57.5	57.5	50	39.0	3	9	90	0.00	30.100 
12:00	57.5	57.5	57.5	52	40.0	2	6	90	0.00	30.094 
12:05	57.6	57.6	57.6	51	39.6	2	6	112	0.00	30.094 
12:10	57.6	57.6	57.6	50	39.1	3	7	112	0.00	30.094 
12:15	57.8	57.8	57.8	52	40.3	3	6	90	0.00	30.084 
12:20	57.8	57.8	57.8	51	39.8	3	9	90	0.00	30.084 
12:25	57.8	57.8	57.8	50	39.3	3	9	112	0.00	30.084 
12:30	57.8	57.8	57.8	51	39.8	3	7	112	0.00	30.074 
12:35	57.6	57.6	57.6	51	39.6	3	6	112	0.00	30.074 
12:40	57.6	57.6	57.6	52	40.1	3	7	112	0.00	30.074 
12:45	57.8	57.8	57.8	52	40.3	4	10	90	0.00	30.068 
12:50	57.6	57.6	57.6	52	40.1	4	12	112	0.00	30.068 
12:55	57.5	57.5	57.5	50	39.0	5	12	112	0.00	30.068 
13:00	57.5	57.5	57.5	50	39.0	4	14	90	0.00	30.055 
13:05	57.3	57.3	57.3	50	38.8	5	13	112	0.00	30.055 
13:10	57.3	57.3	57.3	49	38.3	4	11	90	0.00	30.055 
13:15	57.2	57.2	57.2	49	38.2	4	11	90	0.00	30.050 
13:20	57.3	57.3	57.3	48	37.8	4	11	90	0.00	30.050 
13:25	57.5	57.5	57.5	48	38.0	4	11	90	0.00	30.050 
13:30	57.8	57.8	57.8	49	38.8	3	7	90	0.00	30.044 
13:35	58.3	58.3	58.3	48	38.7	3	8	112	0.00	30.044 
13:40	58.7	58.7	58.7	48	39.1	4	15	112	0.00	30.044 
13:45	59.3	59.3	59.3	49	40.1	3	10	112	0.00	30.041 
13:50	59.8	59.8	59.8	48	40.1	3	11	112	0.00	30.041 
13:55	59.8	59.8	59.8	47	39.5	5	11	90	0.00	30.041 
14:00	59.3	59.3	59.3	48	39.6	5	13	90	0.00	30.022 
14:05	58.7	58.7	58.7	47	38.5	4	11	112	0.00	30.022 
14:10	58.7	58.7	58.7	49	39.6	4	10	90	0.00	30.022 
14:15	59.2	59.2	59.2	50	40.6	3	11	90	0.00	30.026 
14:20	59.9	59.9	59.9	51	41.7	4	11	90	0.00	30.026 
14:25	60.7	60.7	60.7	48	40.9	4	10	90	0.00	30.026 
14:30	61.3	61.3	61.3	49	42.0	4	10	112	0.00	30.013 
14:35	61.6	61.6	61.6	47	41.2	4	9	90	0.00	30.013 
14:40	62.1	62.1	62.1	46	41.1	3	9	90	0.00	30.013 
14:45	62.4	62.4	62.4	46	41.3	4	11	112	0.00	30.002 
14:50	62.7	62.7	62.7	45	41.0	4	11	112	0.00	30.002 
14:55	62.6	62.6	62.6	45	41.0	5	13	90	0.00	30.002 
15:00	62.9	62.9	62.9	46	41.8	4	11	112	0.00	30.004 
15:05	62.9	62.9	62.9	45	41.2	5	12	90	0.00	30.004 
15:10	63.4	63.4	63.4	43	40.5	4	8	90	0.00	30.004 
15:15	63.9	63.9	63.9	45	42.1	3	11	90	0.00	29.988 
15:20	64.0	64.0	64.0	44	41.6	5	11	112	0.00	29.988 
15:25	64.0	64.0	64.0	44	41.6	3	9	112	0.00	29.988 
15:30	64.3	64.3	64.3	43	41.3	3	9	112	0.00	29.977 
15:35	64.7	64.7	64.7	43	41.7	3	7	112	0.00	29.977 
15:40	65.2	65.2	65.2	41	40.9	3	9	90	0.00	29.977 
15:45	65.3	65.3	65.3	39	39.7	3	7	112	0.00	29.970 
15:50	65.5	65.5	65.5	39	39.9	3	7	90	0.00	29.970 
15:55	65.3	65.3	65.3	40	40.4	5	13	90	0.00	29.970 
16:00	65.6	65.6	65.6	42	41.9	3	7	90	0.00	29.964 
16:05	65.6	65.6	65.6	43	42.5	4	11	90	0.00	29.964 
16:10	65.8	65.8	65.8	41	41.4	3	7	90	0.00	29.964 
16:15	66.0	66.0	66.0	40	41.0	4	12	90	0.00	29.951 
16:20	66.0	66.0	66.0	41	41.6	4	11	90	0.00	29.951 
16:25	66.0	66.0	66.0	39	40.3	4	9	90	0.00	29.951 
16:30	66.0	66.0	66.0	40	41.0	3	9	90	0.00	29.949 
16:35	66.1	66.1	66.1	40	41.1	4	10	90	0.00	29.949 
16:40	66.3	66.3	66.3	40	41.2	4	8	112	0.00	29.949 
16:45	66.3	66.3	66.3	41	41.9	5	12	90	0.00	29.943 
16:50	66.4	66.4	66.4	41	42.0	4	12	90	0.00	29.943 
16:55	66.9	66.9	66.9	39	41.1	3	6	112	0.00	29.943 
17:00	66.9	66.9	66.9	39	41.1	5	10	112	0.00	29.937 
17:05	66.9	66.9	66.9	38	40.5	3	6	90	0.00	29.937 
17:10	66.9	66.9	66.9	39	41.1	4	10	90	0.00	29.937 
17:15	66.9	66.9	66.9	38	40.5	3	11	112	0.00	29.935 
17:20	67.1	67.1	67.1	39	41.3	3	10	90	0.00	29.935 
17:25	67.1	67.1	67.1	39	41.3	4	10	90	0.00	29.935 
17:30	67.1	67.1	67.1	37	40.0	4	10	112	0.00	29.933 
17:35	67.1	67.1	67.1	39	41.3	3	10	90	0.00	29.933 
17:40	67.1	67.1	67.1	38	40.6	3	7	90	0.00	29.933 
17:45	67.3	67.3	67.3	40	42.1	3	6	112	0.00	29.930 
17:50	67.3	67.3	67.3	39	41.5	3	12	90	0.00	29.930 
17:55	67.3	67.3	67.3	39	41.5	4	13	90	0.00	29.930 
18:00	67.3	67.3	67.3	37	40.1	4	7	90	0.00	29.930 
18:05	67.1	67.1	67.1	38	40.6	4	7	112	0.00	29.930 
18:10	66.8	66.8	66.8	39	41.0	4	11	90	0.00	29.930 
18:15	66.4	66.4	66.4	40	41.3	4	9	90	0.00	29.920 
18:20	66.3	66.3	66.3	41	41.9	3	9	90	0.00	29.920 
18:25	66.3	66.3	66.3	41	41.9	4	12	90	0.00	29.920 
18:30	66.3	66.3	66.3	40	41.2	3	7	90	0.00	29.917 
18:35	66.3	66.3	66.3	41	41.9	2	5	90	0.00	29.917 
18:40	66.4	66.4	66.4	41	42.0	3	5	90	0.00	29.917 
18:45	66.3	66.3	66.3	40	41.2	4	9	90	0.00	29.919 
18:50	66.3	66.3	66.3	41	41.9	3	7	90	0.00	29.919 
18:55	66.3	66.3	66.3	41	41.9	3	12	112	0.00	29.919 
19:00	66.1	66.1	66.1	42	42.3	3	9	90	0.00	29.911 
19:05	66.0	66.0	66.0	42	42.2	3	7	112	0.00	29.911 
19:10	65.8	65.8	65.8	42	42.1	3	6	90	0.00	29.911 
19:15	65.6	65.6	65.6	42	41.9	3	7	90	0.00	29.906 
19:20	65.6	65.6	65.6	43	42.5	2	6	90	0.00	29.906 
19:25	65.5	65.5	65.5	43	42.4	2	7	90	0.00	29.906 
19:30	65.3	65.3	65.3	43	42.2	1	4	112	0.00	29.917 
19:35	65.2	65.2	65.2	44	42.7	1	4	112	0.00	29.917 
19:40	65.0	65.0	65.0	45	43.1	2	6	135	0.00	29.917 
19:45	64.8	64.8	64.8	46	43.5	1	6	90	0.00	29.912 
19:50	64.7	64.7	64.7	45	42.9	2	7	90	0.00	29.912 
19:55	64.5	64.5	64.5	44	42.1	2	5	112	0.00	29.912 
20:00	64.5	64.5	64.5	45	42.7	1	4	90	0.00	29.919 
20:05	64.3	64.3	64.3	45	42.5	2	4	112	0.00	29.919 
20:10	64.2	64.2	64.2	46	43.0	3	9	112	0.00	29.919 
20:15	64.0	64.0	64.0	47	43.4	2	10	112	0.00	29.928 
20:20	63.9	63.9	63.9	46	42.7	3	7	112	0.00	29.928 
20:25	63.7	63.7	63.7	47	43.1	3	7	112	0.00	29.928 
20:30	63.5	63.5	63.5	47	42.9	3	7	135	0.00	29.925 
20:35	63.4	63.4	63.4	47	42.8	3	7	112	0.00	29.925 
20:40	63.2	63.2	63.2	48	43.2	3	7	112	0.00	29.925 
20:45	63.1	63.1	63.1	47	42.5	3	10	112	0.00	29.931 
20:50	62.9	62.9	62.9	47	42.4	4	10	112	0.00	29.931 
20:55	62.9	62.9	62.9	47	42.4	3	6	112	0.00	29.931 
21:00	62.7	62.7	62.7	47	42.2	2	4	112	0.00	29.932 
21:05	62.6	62.6	62.6	47	42.1	2	5	112	0.00	29.932 
21:10	62.4	62.4	62.4	47	41.9	2	5	90	0.00	29.932 
21:15	62.4	62.4	62.4	48	42.4	2	5	112	0.00	29.931 
21:20	62.3	62.3	62.3	48	42.4	2	6	90	0.00	29.931 
21:25	62.1	62.1	62.1	48	42.2	3	8	112	0.00	29.931 
21:30	62.1	62.1	62.1	48	42.2	2	7	112	0.00	29.929 
21:35	62.1	62.1	62.1	48	42.2	3	7	112	0.00	29.929 
21:40	62.0	62.0	62.0	49	42.6	2	5	112	0.00	29.929 
21:45	62.0	62.0	62.0	49	42.6	3	6	112	0.00	29.928 
21:50	61.8	61.8	61.8	49	42.4	2	5	112	0.00	29.928 
21:55	61.6	61.6	61.6	49	42.3	4	7	112	0.00	29.928 
22:00	61.6	61.6	61.6	50	42.8	3	11	112	0.00	29.917 
22:05	61.6	61.6	61.6	50	42.8	2	6	112	0.00	29.917 
22:10	61.5	61.5	61.5	50	42.7	3	9	112	0.00	29.917 
22:15	61.3	61.3	61.3	50	42.5	3	7	112	0.00	29.911 
22:20	61.2	61.2	61.2	50	42.4	3	7	90	0.00	29.911 
22:25	61.2	61.2	61.2	51	42.9	3	7	112	0.00	29.911 
22:30	61.0	61.0	61.0	51	42.7	3	6	90	0.00	29.912 
22:35	61.0	61.0	61.0	51	42.7	3	7	112	0.00	29.912 
22:40	61.2	61.2	61.2	51	42.9	3	6	112	0.00	29.912 
22:45	61.2	61.2	61.2	51	42.9	3	6	112	0.00	29.923 
22:50	61.0	61.0	61.0	51	42.7	3	9	112	0.00	29.923 
22:55	61.0	61.0	61.0	51	42.7	3	7	112	0.00	29.923 
23:00	61.0	61.0	61.0	51	42.7	2	6	112	0.00	29.915 
23:05	61.0	61.0	61.0	51	42.7	3	7	112	0.00	29.915 
23:10	61.0	61.0	61.0	51	42.7	2	6	112	0.00	29.915 
23:15	61.0	61.0	61.0	51	42.7	2	7	135	0.00	29.913 
23:20	60.9	60.9	60.9	52	43.2	2	7	112	0.00	29.913 
23:25	60.9	60.9	60.9	52	43.2	2	6	112	0.00	29.913 
23:30	60.7	60.7	60.7	52	43.0	2	5	112	0.00	29.912 
23:35	60.7	60.7	60.7	53	43.5	2	5	112	0.00	29.912 
23:40	60.5	60.5	60.5	53	43.3	1	6	135	0.00	29.912 
23:45	60.5	60.5	60.5	53	43.3	2	5	112	0.00	29.910 
23:50	60.4	60.4	60.4	53	43.2	2	5	112	0.00	29.910 
23:55	60.4	60.4	60.4	53	43.2	1	4	112	0.00	29.910 

CoCoRaHS
IN-AL-39
A2 Web Hosting
Creative Commons License
GoDaddy
search engine by freefind advanced

loaded 2018-11-17 22:32:06 • last modified 2010-11-18 10:43:29
Privacy PolicyDisclaimer
• wx.awcolley.com is powered by PmWiki v.2002016 •
• all content (unless otherwise noted) © 2018 A W Colley